Time;durP1;ratioP1;P1;durP2;ratioP2;P2;SDS_P1;SDS_P2;PMS_P1;PMS_P2;Temp;Humidity;BMP_temperature;BMP_pressure;BME280_temperature;BME280_humidity;BME280_pressure;Samples;Min_cycle;Max_cycle;Signal;HPM_P1;HPM_P2
2023/07/11 00:00:44;;;;;;;6.00;2.03;;;21.20;98.40;;;;;;4954007;28;20031;-49
2023/07/11 00:03:11;;;;;;;8.77;2.10;;;21.10;98.50;;;;;;4936847;28;20147;-47
2023/07/11 00:05:37;;;;;;;6.20;1.98;;;21.10;98.80;;;;;;4936432;28;20106;-48
2023/07/11 00:08:03;;;;;;;6.85;2.20;;;21.10;98.90;;;;;;4953709;28;20098;-48
2023/07/11 00:10:29;;;;;;;6.28;1.80;;;21.10;98.90;;;;;;4936794;28;20109;-50
2023/07/11 00:12:54;;;;;;;5.63;1.90;;;21.00;99.00;;;;;;4953590;28;20138;-45
2023/07/11 00:15:20;;;;;;;6.95;2.00;;;20.90;99.00;;;;;;4953402;28;20451;-50
2023/07/11 00:17:47;;;;;;;6.55;1.73;;;20.80;99.20;;;;;;4953677;28;20185;-49
2023/07/11 00:20:14;;;;;;;8.93;2.10;;;20.70;99.50;;;;;;4953554;28;20076;-48
2023/07/11 00:22:41;;;;;;;8.48;2.15;;;20.60;99.70;;;;;;4953769;28;20046;-48
2023/07/11 00:25:08;;;;;;;6.63;1.88;;;20.50;99.90;;;;;;4953361;28;20050;-46
2023/07/11 00:27:34;;;;;;;7.25;2.25;;;20.50;99.90;;;;;;4953449;28;20043;-48
2023/07/11 00:29:59;;;;;;;6.63;2.03;;;20.40;99.90;;;;;;4936364;28;20043;-49
2023/07/11 00:32:25;;;;;;;5.97;1.83;;;20.40;99.90;;;;;;4953339;28;20054;-48
2023/07/11 00:34:51;;;;;;;6.28;1.90;;;20.40;99.90;;;;;;4953522;28;20031;-46
2023/07/11 00:37:16;;;;;;;5.57;1.90;;;20.50;99.90;;;;;;4953108;28;20035;-49
2023/07/11 00:39:43;;;;;;;7.97;2.13;;;20.50;99.90;;;;;;4953459;28;20099;-48
2023/07/11 00:42:09;;;;;;;5.63;1.95;;;20.50;99.90;;;;;;4953498;28;20094;-50
2023/07/11 00:44:59;;;;;;;9.07;2.22;;;20.50;99.90;;;;;;4953073;28;20039;-46
2023/07/11 00:47:26;;;;;;;6.60;2.30;;;20.50;99.90;;;;;;4953471;28;20106;-48
2023/07/11 00:50:06;;;;;;;8.85;2.70;;;20.50;99.90;;;;;;4953340;28;20384;-47
2023/07/11 00:52:35;;;;;;;7.90;2.17;;;20.50;99.90;;;;;;4952511;28;20047;-47
2023/07/11 00:55:06;;;;;;;6.15;2.17;;;20.40;99.90;;;;;;4952364;28;20418;-49
2023/07/11 00:57:36;;;;;;;6.13;2.25;;;20.40;99.90;;;;;;4952406;28;20050;-49
2023/07/11 01:00:04;;;;;;;8.82;2.55;;;20.40;99.90;;;;;;4952778;28;20039;-47
2023/07/11 01:02:32;;;;;;;8.07;2.72;;;20.30;99.90;;;;;;4953280;28;20134;-49
2023/07/11 01:04:59;;;;;;;8.23;2.83;;;20.20;99.90;;;;;;4953059;28;20051;-48
2023/07/11 01:07:29;;;;;;;6.28;2.80;;;20.00;99.90;;;;;;4953037;28;20047;-49
2023/07/11 01:09:54;;;;;;;6.35;2.20;;;19.90;99.90;;;;;;4952828;28;20043;-49
2023/07/11 01:12:21;;;;;;;8.60;3.08;;;19.80;99.90;;;;;;4952958;28;20046;-46
2023/07/11 01:14:49;;;;;;;7.28;2.65;;;19.70;99.90;;;;;;4952340;28;20098;-49
2023/07/11 01:17:30;;;;;;;6.78;2.85;;;19.70;99.90;;;;;;4952943;28;20043;-47
2023/07/11 01:19:58;;;;;;;7.78;2.65;;;19.70;99.90;;;;;;4953081;28;20047;-50
2023/07/11 01:22:25;;;;;;;6.07;2.45;;;19.70;99.90;;;;;;4952500;28;20039;-50
2023/07/11 01:24:51;;;;;;;8.93;2.75;;;19.60;99.90;;;;;;4952889;28;20065;-52
2023/07/11 01:27:19;;;;;;;5.53;2.70;;;19.60;99.90;;;;;;4952564;28;20078;-49
2023/07/11 01:29:48;;;;;;;5.30;2.63;;;19.60;99.90;;;;;;4952579;28;20050;-48
2023/07/11 01:32:13;;;;;;;8.77;2.75;;;19.60;99.90;;;;;;4935595;28;20050;-48
2023/07/11 01:34:39;;;;;;;7.45;2.92;;;19.60;99.90;;;;;;4952626;28;20390;-47
2023/07/11 01:37:05;;;;;;;7.30;2.70;;;19.50;99.90;;;;;;4952678;28;20044;-47
2023/07/11 01:39:30;;;;;;;7.28;3.38;;;19.50;99.90;;;;;;4953428;28;20439;-48
2023/07/11 01:41:56;;;;;;;8.82;3.33;;;19.40;99.90;;;;;;4956564;28;20070;-49
2023/07/11 01:44:22;;;;;;;11.65;3.08;;;19.40;99.90;;;;;;4956696;28;20042;-50
2023/07/11 01:46:48;;;;;;;7.78;3.40;;;19.20;99.90;;;;;;4955766;28;20336;-48
2023/07/11 01:49:14;;;;;;;7.40;3.25;;;19.20;99.90;;;;;;4956587;28;20114;-44
2023/07/11 01:51:45;;;;;;;6.75;3.00;;;19.20;99.90;;;;;;4956535;28;20031;-47
2023/07/11 01:54:10;;;;;;;8.80;3.50;;;19.20;99.90;;;;;;4962733;28;20062;-46
2023/07/11 01:56:37;;;;;;;9.70;3.60;;;19.20;99.90;;;;;;4975330;28;20034;-50
2023/07/11 01:59:02;;;;;;;7.85;3.50;;;19.10;99.90;;;;;;4974933;28;20042;-50
2023/07/11 02:01:28;;;;;;;6.00;3.10;;;19.10;99.90;;;;;;4975413;28;20402;-48
2023/07/11 02:03:54;;;;;;;9.80;3.70;;;19.10;99.90;;;;;;4975168;28;20038;-45
2023/07/11 02:06:20;;;;;;;7.10;3.65;;;19.00;99.90;;;;;;4957731;28;20102;-47
2023/07/11 02:08:46;;;;;;;7.38;3.38;;;19.00;99.90;;;;;;4955454;28;20031;-45
2023/07/11 02:11:12;;;;;;;8.63;3.60;;;18.90;99.90;;;;;;4955580;28;20047;-50
2023/07/11 02:13:40;;;;;;;9.45;3.50;;;18.90;99.90;;;;;;4955301;28;20458;-48
2023/07/11 02:16:07;;;;;;;7.63;3.38;;;18.90;99.90;;;;;;4955587;28;20051;-48
2023/07/11 02:18:34;;;;;;;7.97;3.97;;;18.80;99.90;;;;;;4955865;28;20333;-46
2023/07/11 02:20:59;;;;;;;7.57;3.58;;;18.80;99.90;;;;;;4955756;28;20043;-47
2023/07/11 02:23:25;;;;;;;8.18;3.60;;;18.90;99.90;;;;;;4955423;28;20039;-48
2023/07/11 02:25:54;;;;;;;8.02;4.15;;;18.80;99.90;;;;;;4955769;28;20031;-47
2023/07/11 02:28:21;;;;;;;9.30;3.53;;;18.70;99.90;;;;;;4955726;28;20471;-48
2023/07/11 02:30:47;;;;;;;6.90;3.80;;;18.70;99.90;;;;;;4955777;28;20046;-48
2023/07/11 02:33:13;;;;;;;7.07;3.50;;;18.80;99.90;;;;;;4955517;28;20039;-48
2023/07/11 02:35:38;;;;;;;7.57;3.75;;;18.70;99.90;;;;;;4955681;28;20062;-47
2023/07/11 02:38:04;;;;;;;7.20;3.50;;;18.70;99.90;;;;;;4955289;28;20111;-47
2023/07/11 02:40:30;;;;;;;7.57;4.03;;;18.70;99.90;;;;;;4955662;28;20051;-48
2023/07/11 02:42:55;;;;;;;8.70;3.85;;;18.70;99.90;;;;;;4955417;28;20027;-49
2023/07/11 02:45:21;;;;;;;5.70;3.20;;;18.80;99.90;;;;;;4954965;28;20094;-51
2023/07/11 02:47:47;;;;;;;9.65;3.28;;;18.70;99.90;;;;;;4955360;28;20046;-47
2023/07/11 02:50:13;;;;;;;7.28;3.28;;;18.70;99.90;;;;;;4954944;28;20073;-50
2023/07/11 02:52:38;;;;;;;6.93;3.42;;;18.70;99.90;;;;;;4955329;28;20053;-46
2023/07/11 02:55:05;;;;;;;7.43;3.20;;;18.70;99.90;;;;;;4954806;28;20480;-47
2023/07/11 02:57:31;;;;;;;6.80;3.20;;;18.70;99.90;;;;;;4955013;28;20043;-46
2023/07/11 02:59:57;;;;;;;7.15;3.20;;;18.70;99.90;;;;;;4955264;28;20440;-50
2023/07/11 03:02:22;;;;;;;8.07;3.60;;;18.70;99.90;;;;;;4954778;28;20043;-46
2023/07/11 03:04:48;;;;;;;7.07;3.30;;;18.70;99.90;;;;;;4955274;28;20035;-49
2023/07/11 03:07:14;;;;;;;5.72;3.03;;;18.80;99.90;;;;;;4955097;28;20038;-48
2023/07/11 03:09:41;;;;;;;7.20;3.08;;;18.80;99.90;;;;;;4954980;28;20035;-48
2023/07/11 03:12:07;;;;;;;6.60;3.20;;;18.80;99.90;;;;;;4954852;28;20042;-49
2023/07/11 03:14:33;;;;;;;8.70;3.10;;;18.70;99.90;;;;;;4954839;28;20136;-47
2023/07/11 03:16:59;;;;;;;7.82;3.30;;;18.70;99.90;;;;;;4954504;28;20051;-47
2023/07/11 03:19:24;;;;;;;9.43;3.38;;;18.70;99.90;;;;;;4937929;28;20118;-49
2023/07/11 03:21:50;;;;;;;8.50;3.30;;;18.70;99.90;;;;;;4954877;28;20044;-49
2023/07/11 03:24:16;;;;;;;8.93;3.47;;;18.70;99.90;;;;;;4954754;28;20122;-45
2023/07/11 03:26:45;;;;;;;10.45;3.90;;;18.60;99.90;;;;;;4954072;28;20151;-48
2023/07/11 03:29:13;;;;;;;10.80;3.85;;;18.60;99.90;;;;;;4952913;28;20050;-48
2023/07/11 03:31:39;;;;;;;7.30;3.70;;;18.60;99.90;;;;;;4954357;28;20051;-49
2023/07/11 03:34:05;;;;;;;11.27;3.70;;;18.60;99.90;;;;;;4954398;28;20071;-48
2023/07/11 03:36:31;;;;;;;9.23;3.78;;;18.50;99.90;;;;;;4954484;28;20126;-50
2023/07/11 03:38:56;;;;;;;13.35;4.10;;;18.50;99.90;;;;;;4954345;28;20051;-48
2023/07/11 03:41:22;;;;;;;10.00;3.45;;;18.50;99.90;;;;;;4953990;28;20550;-48
2023/07/11 03:43:48;;;;;;;14.85;4.65;;;18.50;99.90;;;;;;4954347;28;20103;-47
2023/07/11 03:46:13;;;;;;;10.50;4.05;;;18.50;99.90;;;;;;4953859;28;20047;-49
2023/07/11 03:48:39;;;;;;;10.02;4.07;;;18.50;99.90;;;;;;4954265;28;20410;-48
2023/07/11 03:51:04;;;;;;;8.93;4.50;;;18.50;99.90;;;;;;4954499;28;20466;-49
2023/07/11 03:53:30;;;;;;;8.73;4.45;;;18.50;99.90;;;;;;4954067;28;20475;-47
2023/07/11 03:55:56;;;;;;;8.90;4.97;;;18.40;99.90;;;;;;4954175;28;20447;-48
2023/07/11 03:58:25;;;;;;;8.60;4.50;;;18.40;99.90;;;;;;4953964;28;20039;-50
2023/07/11 04:00:51;;;;;;;11.52;5.65;;;18.40;99.90;;;;;;4953963;28;20031;-48
2023/07/11 04:03:17;;;;;;;9.15;4.68;;;18.40;99.90;;;;;;4936300;28;20046;-48
2023/07/11 04:05:42;;;;;;;13.27;5.78;;;18.40;99.90;;;;;;4954181;28;20031;-51
2023/07/11 04:08:08;;;;;;;10.50;5.13;;;18.40;99.90;;;;;;4953911;28;20447;-50
2023/07/11 04:10:35;;;;;;;9.85;4.68;;;18.40;99.90;;;;;;4953859;28;20523;-48
2023/07/11 04:13:01;;;;;;;7.75;4.75;;;18.40;99.90;;;;;;4953989;28;20051;-48
2023/07/11 04:15:26;;;;;;;9.77;5.38;;;18.50;99.90;;;;;;4952997;28;20459;-48
2023/07/11 04:17:52;;;;;;;10.68;4.95;;;18.50;99.90;;;;;;4953744;28;20616;-50
2023/07/11 04:20:18;;;;;;;11.75;5.30;;;18.50;99.90;;;;;;4953690;28;20057;-48
2023/07/11 04:22:43;;;;;;;10.15;5.15;;;18.50;99.90;;;;;;4953708;28;20119;-48
2023/07/11 04:25:09;;;;;;;12.15;5.78;;;18.60;99.90;;;;;;4953782;28;20135;-48
2023/07/11 04:27:35;;;;;;;9.48;5.13;;;18.60;99.90;;;;;;4953705;28;20036;-51
2023/07/11 04:30:01;;;;;;;10.93;5.30;;;18.60;99.90;;;;;;4953755;28;20043;-50
2023/07/11 04:32:28;;;;;;;10.75;5.45;;;18.60;99.90;;;;;;4953442;28;20094;-48
2023/07/11 04:34:54;;;;;;;11.10;5.75;;;18.70;99.90;;;;;;4953733;28;20074;-50
2023/07/11 04:37:19;;;;;;;9.90;5.22;;;18.70;99.90;;;;;;4953377;28;20034;-49
2023/07/11 04:39:45;;;;;;;10.85;5.07;;;18.70;99.90;;;;;;4953107;28;20070;-47
2023/07/11 04:42:11;;;;;;;9.85;5.38;;;18.70;99.90;;;;;;4953277;28;20055;-51
2023/07/11 04:44:37;;;;;;;10.25;5.88;;;18.70;99.90;;;;;;4972619;28;20057;-48
2023/07/11 04:47:03;;;;;;;11.90;5.53;;;18.70;99.90;;;;;;4936630;28;20035;-50
2023/07/11 04:49:29;;;;;;;10.18;5.18;;;18.70;99.90;;;;;;4953241;28;20475;-46
2023/07/11 04:51:55;;;;;;;10.68;5.65;;;18.80;99.90;;;;;;4934039;28;20155;-47
2023/07/11 04:54:21;;;;;;;12.75;5.78;;;18.70;99.90;;;;;;4935453;28;20043;-49
2023/07/11 04:56:55;;;;;;;11.60;5.97;;;18.70;99.90;;;;;;4953279;28;20039;-47
2023/07/11 04:59:21;;;;;;;7.80;5.85;;;18.80;99.90;;;;;;4953176;28;20039;-51
2023/07/11 05:01:46;;;;;;;10.38;5.90;;;18.80;99.90;;;;;;4952971;28;20365;-48
2023/07/11 05:04:12;;;;;;;10.25;5.90;;;18.70;99.90;;;;;;4953135;28;20041;-50
2023/07/11 05:06:37;;;;;;;12.15;5.97;;;18.80;99.90;;;;;;4952841;28;20107;-49
2023/07/11 05:09:03;;;;;;;12.35;6.22;;;18.80;99.90;;;;;;4952998;28;20038;-48
2023/07/11 05:11:29;;;;;;;13.38;6.40;;;18.90;99.90;;;;;;4952581;28;20043;-47
2023/07/11 05:13:55;;;;;;;11.07;5.75;;;18.90;99.90;;;;;;4952752;28;20063;-47
2023/07/11 05:16:24;;;;;;;13.23;6.68;;;19.00;99.90;;;;;;4952609;28;20509;-46
2023/07/11 05:18:50;;;;;;;9.73;6.22;;;19.00;99.90;;;;;;4953092;28;20455;-47
2023/07/11 05:21:18;;;;;;;14.65;6.18;;;19.00;99.90;;;;;;4953017;28;20039;-49
2023/07/11 05:23:44;;;;;;;9.38;6.00;;;19.10;99.90;;;;;;4952425;28;20043;-49
2023/07/11 05:26:10;;;;;;;9.90;6.43;;;19.10;99.90;;;;;;4952387;28;20035;-46
2023/07/11 05:28:36;;;;;;;10.88;6.28;;;19.20;99.90;;;;;;4951818;28;20043;-50
2023/07/11 05:31:03;;;;;;;13.13;6.80;;;19.20;99.90;;;;;;4952144;28;20035;-50
2023/07/11 05:33:30;;;;;;;11.88;6.28;;;19.20;99.90;;;;;;4934123;28;20164;-47
2023/07/11 05:36:31;;;;;;;10.40;6.10;;;19.30;99.90;;;;;;4935581;28;20094;-48
2023/07/11 05:39:14;;;;;;;13.30;5.90;;;19.40;99.90;;;;;;4948470;28;20126;-45
2023/07/11 05:41:44;;;;;;;11.70;6.43;;;19.40;99.90;;;;;;4919778;28;20090;-48
2023/07/11 05:44:12;;;;;;;14.13;6.00;;;19.50;99.90;;;;;;4952218;28;20046;-47
2023/07/11 05:46:38;;;;;;;10.15;6.03;;;19.50;99.90;;;;;;4919143;28;20039;-47
2023/07/11 05:49:05;;;;;;;11.73;6.18;;;19.60;99.90;;;;;;4952428;28;20043;-48
2023/07/11 05:51:31;;;;;;;13.88;5.97;;;19.60;99.90;;;;;;4952700;28;20043;-50
2023/07/11 05:53:57;;;;;;;10.60;6.40;;;19.70;99.90;;;;;;4952590;28;20046;-49
2023/07/11 05:56:23;;;;;;;11.35;6.10;;;19.70;99.90;;;;;;4952776;28;20185;-57
2023/07/11 05:58:51;;;;;;;10.52;6.05;;;19.80;99.90;;;;;;4950568;28;20134;-49
2023/07/11 06:01:20;;;;;;;11.48;5.70;;;19.90;99.90;;;;;;4951852;28;20394;-51
2023/07/11 06:03:49;;;;;;;11.13;6.45;;;20.00;99.90;;;;;;4950916;28;20039;-47
2023/07/11 06:06:16;;;;;;;10.57;6.13;;;20.10;99.90;;;;;;4946539;28;20122;-51
2023/07/11 06:08:42;;;;;;;11.15;6.22;;;20.00;99.90;;;;;;4943439;28;20046;-48
2023/07/11 06:11:09;;;;;;;12.82;6.57;;;20.10;99.90;;;;;;4943861;28;20031;-47
2023/07/11 06:13:38;;;;;;;11.38;6.25;;;20.10;99.90;;;;;;4924083;28;20059;-48
2023/07/11 06:16:12;;;;;;;12.73;6.75;;;20.10;99.90;;;;;;4942478;28;20468;-50
2023/07/11 06:18:38;;;;;;;;;;;20.20;99.90;;;;;;4942662;28;20122;-49
2023/07/11 06:21:05;;;;;;;12.13;5.80;;;20.20;99.90;;;;;;4943697;28;20033;-46
2023/07/11 06:23:31;;;;;;;11.77;6.28;;;20.20;99.90;;;;;;4909879;28;20027;-49
2023/07/11 06:25:57;;;;;;;11.25;6.13;;;20.20;99.90;;;;;;4944664;28;20079;-50
2023/07/11 06:28:23;;;;;;;10.02;6.05;;;20.20;99.90;;;;;;4946172;28;20047;-51
2023/07/11 06:30:49;;;;;;;10.57;5.75;;;20.30;99.90;;;;;;4944866;28;20080;-47
2023/07/11 06:33:17;;;;;;;12.70;5.78;;;20.30;99.90;;;;;;4923443;28;20957;-45
2023/07/11 06:35:51;;;;;;;9.85;5.85;;;20.30;99.90;;;;;;4944460;28;20122;-48
2023/07/11 06:38:17;;;;;;;11.63;6.33;;;20.30;99.90;;;;;;4945522;28;20494;-49
2023/07/11 06:40:51;;;;;;;10.45;6.05;;;20.30;99.90;;;;;;4928490;28;20640;-50
2023/07/11 06:43:18;;;;;;;;;;;20.30;99.90;;;;;;4946958;28;20510;-51
2023/07/11 06:45:48;;;;;;;9.77;5.68;;;20.40;99.90;;;;;;4946266;28;20025;-50
2023/07/11 06:48:18;;;;;;;9.70;6.10;;;20.30;99.90;;;;;;4946152;28;23353;-49
2023/07/11 06:51:00;;;;;;;9.55;6.15;;;20.40;99.90;;;;;;4929609;28;20416;-49
2023/07/11 06:53:29;;;;;;;10.10;5.85;;;20.40;99.90;;;;;;4945928;28;20065;-48
2023/07/11 06:55:54;;;;;;;12.82;6.63;;;20.50;99.90;;;;;;4945811;28;20087;-48
2023/07/11 06:58:21;;;;;;;9.60;5.90;;;20.60;99.90;;;;;;4946460;28;20074;-50
2023/07/11 07:01:01;;;;;;;9.63;5.32;;;20.70;99.90;;;;;;4928367;28;20130;-52
2023/07/11 07:03:27;;;;;;;10.98;5.38;;;20.80;99.90;;;;;;4944857;28;20047;-47
2023/07/11 07:06:00;;;;;;;8.40;5.25;;;20.80;99.90;;;;;;4946388;28;20035;-51
2023/07/11 07:08:26;;;;;;;9.70;5.30;;;20.90;99.90;;;;;;4942655;28;20043;-49
2023/07/11 07:10:52;;;;;;;8.50;5.18;;;21.00;99.90;;;;;;4944497;28;20522;-49
2023/07/11 07:13:21;;;;;;;10.13;4.70;;;21.10;99.90;;;;;;4941140;28;20035;-51
2023/07/11 07:15:52;;;;;;;8.02;4.82;;;21.20;99.90;;;;;;4943077;28;20043;-50
2023/07/11 07:18:19;;;;;;;11.30;4.95;;;21.30;99.90;;;;;;4944260;28;20130;-47
2023/07/11 07:20:45;;;;;;;9.93;4.50;;;21.50;99.90;;;;;;4945607;28;20434;-50
2023/07/11 07:23:11;;;;;;;7.03;4.45;;;21.60;99.90;;;;;;4944219;28;20479;-48
2023/07/11 07:25:37;;;;;;;8.45;4.20;;;21.70;99.90;;;;;;4944000;28;20027;-48
2023/07/11 07:28:03;;;;;;;11.52;4.50;;;21.80;99.90;;;;;;4944099;28;20071;-51
2023/07/11 07:30:29;;;;;;;8.23;3.72;;;21.90;99.90;;;;;;4945204;28;20118;-46
2023/07/11 07:32:55;;;;;;;11.32;3.90;;;22.00;99.90;;;;;;4945144;28;20197;-49
2023/07/11 07:35:21;;;;;;;7.72;3.60;;;22.10;99.90;;;;;;4943762;28;20063;-49
2023/07/11 07:37:47;;;;;;;7.45;3.22;;;22.20;99.90;;;;;;4926513;28;20038;-50
2023/07/11 07:40:14;;;;;;;7.40;3.40;;;22.30;99.90;;;;;;4943743;28;20035;-49
2023/07/11 07:42:40;;;;;;;9.30;3.90;;;22.40;99.90;;;;;;4944441;28;20709;-49
2023/07/11 07:45:06;;;;;;;8.52;3.53;;;22.50;99.90;;;;;;4945052;28;20089;-48
2023/07/11 07:47:34;;;;;;;8.65;3.28;;;22.60;99.90;;;;;;4944138;28;20039;-49
2023/07/11 07:49:59;;;;;;;8.40;3.08;;;22.70;99.90;;;;;;4944868;28;20551;-50
2023/07/11 07:52:25;;;;;;;8.02;3.03;;;22.80;99.90;;;;;;4945238;28;20139;-51
2023/07/11 07:54:50;;;;;;;9.07;2.80;;;22.90;99.90;;;;;;4943927;28;20054;-49
2023/07/11 07:57:16;;;;;;;7.70;3.42;;;23.00;99.90;;;;;;4943940;28;20411;-47
2023/07/11 07:59:42;;;;;;;6.85;2.92;;;23.00;99.90;;;;;;4942954;28;20047;-48
2023/07/11 08:02:09;;;;;;;9.63;2.60;;;23.10;99.90;;;;;;4942090;28;20082;-51
2023/07/11 08:04:35;;;;;;;9.00;2.60;;;23.20;99.90;;;;;;4943751;28;20767;-48
2023/07/11 08:07:01;;;;;;;6.47;2.80;;;23.30;99.90;;;;;;4944016;28;20313;-49
2023/07/11 08:09:27;;;;;;;6.28;2.60;;;23.30;99.90;;;;;;4944241;28;20090;-50
2023/07/11 08:11:52;;;;;;;8.45;2.30;;;23.40;99.90;;;;;;4944650;28;20372;-49
2023/07/11 08:14:18;;;;;;;4.90;2.28;;;23.50;99.90;;;;;;4943553;28;20117;-51
2023/07/11 08:16:44;;;;;;;7.30;2.20;;;23.70;99.90;;;;;;4943533;28;20050;-50
2023/07/11 08:19:09;;;;;;;6.10;2.20;;;23.80;99.90;;;;;;4944256;28;20392;-53
2023/07/11 08:21:36;;;;;;;11.25;2.65;;;23.90;99.90;;;;;;4944026;28;20462;-50
2023/07/11 08:24:03;;;;;;;6.50;2.30;;;24.00;99.90;;;;;;4944210;28;20035;-50
2023/07/11 08:26:28;;;;;;;6.80;2.63;;;23.90;99.90;;;;;;4943464;28;20047;-50
2023/07/11 08:28:57;;;;;;;7.65;2.85;;;24.00;99.90;;;;;;4943636;28;20035;-48
2023/07/11 08:31:23;;;;;;;5.53;2.40;;;24.00;99.90;;;;;;4925056;29;20093;-48
2023/07/11 08:33:48;;;;;;;10.30;2.70;;;24.10;99.90;;;;;;4926810;28;20490;-48
2023/07/11 08:36:14;;;;;;;9.48;2.60;;;24.10;99.90;;;;;;4926440;29;20114;-51
2023/07/11 08:38:40;;;;;;;8.25;2.50;;;24.30;99.90;;;;;;4944190;28;20557;-50
2023/07/11 08:41:17;;;;;;;6.32;2.10;;;24.40;99.90;;;;;;4943738;28;20067;-51
2023/07/11 08:43:43;;;;;;;7.38;1.92;;;24.50;99.90;;;;;;4944194;28;20105;-50
2023/07/11 08:46:14;;;;;;;7.57;2.13;;;24.60;99.90;;;;;;4918780;29;20447;-52
2023/07/11 08:48:50;;;;;;;7.90;2.20;;;24.70;99.90;;;;;;4943398;28;20047;-48
2023/07/11 08:51:41;;;;;;;5.20;2.05;;;24.80;99.90;;;;;;4951478;28;20110;-51
2023/07/11 08:54:20;;;;;;;5.85;2.22;;;24.90;99.90;;;;;;4943381;28;20055;-52
2023/07/11 08:56:48;;;;;;;7.45;2.22;;;25.10;99.90;;;;;;4952172;28;20441;-49
2023/07/11 08:59:31;;;;;;;9.85;2.30;;;25.10;99.90;;;;;;4952772;28;20467;-50
2023/07/11 09:02:15;;;;;;;5.60;1.90;;;25.20;99.90;;;;;;4935194;28;20058;-48
2023/07/11 09:04:49;;;;;;;8.55;2.10;;;25.30;99.90;;;;;;4952313;28;20289;-47
2023/07/11 09:07:23;;;;;;;6.15;2.15;;;25.40;99.90;;;;;;4953312;28;20509;-49
2023/07/11 09:09:49;;;;;;;7.13;2.25;;;25.40;99.90;;;;;;4952723;28;20082;-48
2023/07/11 09:12:41;;;;;;;6.72;2.10;;;25.50;99.90;;;;;;4954386;28;20109;-47
2023/07/11 09:15:18;;;;;;;8.63;2.25;;;25.50;99.90;;;;;;4935743;28;20082;-51
2023/07/11 09:17:53;;;;;;;9.55;2.45;;;25.60;99.90;;;;;;4954300;28;20483;-53
2023/07/11 09:20:30;;;;;;;5.72;1.95;;;25.80;99.90;;;;;;4953357;28;20099;-50
2023/07/11 09:23:14;;;;;;;6.22;2.15;;;26.00;99.90;;;;;;4950887;28;20476;-51
2023/07/11 09:25:42;;;;;;;;;;;26.20;99.90;;;;;;4953052;28;20149;-52
2023/07/11 09:28:22;;;;;;;7.53;1.63;;;26.50;99.90;;;;;;4949091;28;19932;-48
2023/07/11 09:30:48;;;;;;;6.30;1.67;;;26.70;99.90;;;;;;4952711;28;20129;-49
2023/07/11 09:33:22;;;;;;;6.82;1.50;;;27.00;99.90;;;;;;4952536;28;20039;-48
2023/07/11 09:35:50;;;;;;;4.22;1.35;;;27.10;99.90;;;;;;4952853;28;20114;-51
2023/07/11 09:38:28;;;;;;;6.63;1.98;;;27.30;99.80;;;;;;4952359;28;20043;-52
2023/07/11 09:41:02;;;;;;;6.35;1.85;;;27.30;99.20;;;;;;4952449;28;20087;-51
2023/07/11 09:43:27;;;;;;;4.63;1.67;;;27.40;99.50;;;;;;4951058;28;20054;-53
2023/07/11 09:45:53;;;;;;;8.05;1.88;;;27.50;99.30;;;;;;4952006;28;20043;-50
2023/07/11 09:48:31;;;;;;;6.55;2.15;;;27.50;98.80;;;;;;4934972;28;20395;-50
2023/07/11 09:51:24;;;;;;;6.60;1.55;;;27.50;98.60;;;;;;4952438;28;20039;-52
2023/07/11 09:53:55;;;;;;;6.93;1.83;;;27.50;98.20;;;;;;4952120;28;20039;-50
2023/07/11 09:56:23;;;;;;;6.53;1.60;;;27.60;99.20;;;;;;4952871;28;20278;-50
2023/07/11 09:58:57;;;;;;;5.50;2.08;;;27.70;98.70;;;;;;4951914;28;20134;-53
2023/07/11 10:01:24;;;;;;;;;;;27.80;98.70;;;;;;4954360;28;20119;-52
2023/07/11 10:03:54;;;;;;;10.73;2.60;;;27.90;98.60;;;;;;4954498;28;19918;-53
2023/07/11 10:06:31;;;;;;;7.25;2.88;;;27.80;98.50;;;;;;4954771;28;20039;-50
2023/07/11 10:09:05;;;;;;;6.85;1.73;;;27.90;98.00;;;;;;4955593;28;20035;-49
2023/07/11 10:11:31;;;;;;;;;;;27.90;98.10;;;;;;4955706;28;20134;-50
2023/07/11 10:13:57;;;;;;;10.60;2.00;;;27.90;98.30;;;;;;4955467;28;20346;-51
2023/07/11 10:16:23;;;;;;;5.72;1.90;;;27.90;98.20;;;;;;4938245;28;20387;-52
2023/07/11 10:18:51;;;;;;;7.70;2.10;;;27.90;97.80;;;;;;4955513;28;20043;-53
2023/07/11 10:21:22;;;;;;;6.00;1.80;;;28.00;98.30;;;;;;4955841;28;20039;-50
2023/07/11 10:23:51;;;;;;;6.90;1.83;;;28.00;97.80;;;;;;4955523;28;20295;-52
2023/07/11 10:26:24;;;;;;;5.50;1.80;;;28.10;98.30;;;;;;4955889;28;20043;-52
2023/07/11 10:29:07;;;;;;;4.85;1.70;;;28.10;98.20;;;;;;4955632;28;20482;-50
2023/07/11 10:31:41;;;;;;;7.18;1.92;;;28.20;98.30;;;;;;4952203;28;20046;-48
2023/07/11 10:34:15;;;;;;;8.23;1.98;;;28.30;97.80;;;;;;4954664;28;20534;-52
2023/07/11 10:36:48;;;;;;;4.93;1.58;;;28.20;97.70;;;;;;4954234;28;20051;-51
2023/07/11 10:39:31;;;;;;;5.68;1.73;;;28.10;97.10;;;;;;4954618;28;20357;-53
2023/07/11 10:42:23;;;;;;;6.72;2.33;;;28.10;97.20;;;;;;4950822;28;20074;-50
2023/07/11 10:44:56;;;;;;;10.27;1.80;;;28.10;96.30;;;;;;4954527;28;20049;-48
2023/07/11 10:47:30;;;;;;;5.75;1.75;;;28.10;96.70;;;;;;4952978;28;20368;-53
2023/07/11 10:49:58;;;;;;;4.78;1.73;;;28.30;96.20;;;;;;4952549;28;20047;-50
2023/07/11 10:52:26;;;;;;;8.25;1.98;;;28.20;96.10;;;;;;4951110;28;20045;-52
2023/07/11 10:55:10;;;;;;;4.18;1.88;;;28.30;96.40;;;;;;4951562;28;20103;-51
2023/07/11 10:57:50;;;;;;;5.10;1.80;;;28.30;96.40;;;;;;4958156;28;20038;-53
2023/07/11 11:00:49;;;;;;;6.68;2.10;;;28.30;95.80;;;;;;4952121;28;20035;-48
2023/07/11 11:03:33;;;;;;;5.93;1.80;;;28.30;95.80;;;;;;4934513;28;20039;-52
2023/07/11 11:06:16;;;;;;;9.10;4.10;;;28.30;96.00;;;;;;4951911;28;20079;-51
2023/07/11 11:09:16;;;;;;;6.18;1.98;;;28.50;96.10;;;;;;4942108;28;20086;-53
2023/07/11 11:11:44;;;;;;;9.05;2.08;;;28.60;95.90;;;;;;4937331;28;20395;-50
2023/07/11 11:14:27;;;;;;;7.85;2.00;;;28.70;96.00;;;;;;4943028;28;20507;-53
2023/07/11 11:17:22;;;;;;;7.93;2.50;;;28.70;96.30;;;;;;4941591;28;20047;-50
2023/07/11 11:20:02;;;;;;;5.40;1.92;;;28.80;95.40;;;;;;4938241;28;20391;-51
2023/07/11 11:22:36;;;;;;;7.78;1.92;;;28.90;95.90;;;;;;4942820;28;20047;-50
2023/07/11 11:25:10;;;;;;;5.63;1.85;;;28.90;95.50;;;;;;4942327;28;20040;-50
2023/07/11 11:28:06;;;;;;;8.98;2.10;;;29.00;95.80;;;;;;4943826;28;20055;-52
2023/07/11 11:30:31;;;;;;;6.93;2.00;;;29.20;95.50;;;;;;4902126;28;20114;-53
2023/07/11 11:33:22;;;;;;;5.20;1.73;;;29.40;95.70;;;;;;4923179;28;20050;-53
2023/07/11 11:36:09;;;;;;;4.95;1.80;;;29.50;95.50;;;;;;4942264;28;20043;-53
2023/07/11 11:38:53;;;;;;;6.88;2.20;;;29.70;94.60;;;;;;4942588;28;20137;-50
2023/07/11 11:41:29;;;;;;;5.15;1.88;;;29.60;94.50;;;;;;4943626;28;20048;-53
2023/07/11 11:43:55;;;;;;;7.32;2.08;;;29.80;95.20;;;;;;4941937;28;20062;-51
2023/07/11 11:46:21;;;;;;;4.88;1.90;;;30.00;94.80;;;;;;4942813;28;20046;-53
2023/07/11 11:48:50;;;;;;;7.75;1.90;;;30.10;94.10;;;;;;4941961;28;20024;-50
2023/07/11 11:51:18;;;;;;;7.97;2.30;;;30.20;94.20;;;;;;4945013;28;20046;-53
2023/07/11 11:53:46;;;;;;;5.97;1.73;;;30.20;94.20;;;;;;4927808;28;20050;-53
2023/07/11 11:56:17;;;;;;;8.63;3.97;;;30.30;94.20;;;;;;4944647;28;21167;-52
2023/07/11 11:58:52;;;;;;;5.05;2.10;;;30.30;94.10;;;;;;4945533;28;20035;-54
2023/07/11 12:01:55;;;;;;;5.95;1.95;;;30.30;94.30;;;;;;4927242;28;20047;-50
2023/07/11 12:04:27;;;;;;;5.65;1.85;;;30.40;93.50;;;;;;4943191;28;20039;-50
2023/07/11 12:07:01;;;;;;;4.30;1.73;;;30.40;93.90;;;;;;4944034;28;20558;-50
2023/07/11 12:09:44;;;;;;;4.97;2.20;;;30.50;93.60;;;;;;4944229;28;20075;-50
2023/07/11 12:12:22;;;;;;;5.50;2.03;;;30.50;93.70;;;;;;4943546;28;20070;-52
2023/07/11 12:14:54;;;;;;;8.48;2.15;;;30.60;93.40;;;;;;4944800;28;20043;-49
2023/07/11 12:17:29;;;;;;;8.45;2.10;;;30.60;93.00;;;;;;4944810;28;20495;-51
2023/07/11 12:20:01;;;;;;;7.22;2.28;;;30.50;93.50;;;;;;4928048;28;20039;-50
2023/07/11 12:22:38;;;;;;;5.65;1.92;;;30.40;93.10;;;;;;4944733;28;20042;-51
2023/07/11 12:25:07;;;;;;;7.20;2.20;;;30.40;93.60;;;;;;4944570;28;20196;-54
2023/07/11 12:27:33;;;;;;;6.00;2.08;;;30.40;93.30;;;;;;4944297;28;20054;-53
2023/07/11 12:30:01;;;;;;;7.05;2.15;;;30.60;94.00;;;;;;4945450;28;20043;-53
2023/07/11 12:32:32;;;;;;;8.07;2.60;;;30.70;94.00;;;;;;4945384;28;20043;-52
2023/07/11 12:35:22;;;;;;;6.38;1.85;;;30.80;93.80;;;;;;4944516;28;20043;-52
2023/07/11 12:37:58;;;;;;;7.05;2.05;;;30.90;94.00;;;;;;4926512;28;20039;-51
2023/07/11 12:40:53;;;;;;;9.07;1.92;;;30.90;94.40;;;;;;4944461;28;20047;-51
2023/07/11 12:43:26;;;;;;;4.65;2.00;;;30.90;94.00;;;;;;4944681;28;20118;-50
2023/07/11 12:46:17;;;;;;;7.25;1.92;;;30.80;94.00;;;;;;4943817;28;20039;-51
2023/07/11 12:48:47;;;;;;;6.85;1.90;;;30.70;94.10;;;;;;4944490;28;20386;-52
2023/07/11 12:51:29;;;;;;;7.25;1.90;;;30.50;94.00;;;;;;4944053;28;20066;-50
2023/07/11 12:54:10;;;;;;;4.32;1.52;;;30.40;94.10;;;;;;4944596;28;20043;-50
2023/07/11 12:56:45;;;;;;;8.20;2.00;;;30.20;94.20;;;;;;4943974;28;20039;-51
2023/07/11 12:59:22;;;;;;;6.35;1.75;;;30.00;93.60;;;;;;4944094;28;20039;-50